sensor_id;sensor_type;location;lat;lon;timestamp;temperature;humidity
4757;DHT22;2392;52.578;13.426;2023-05-08T00:02:08;10.20;99.90
4757;DHT22;2392;52.578;13.426;2023-05-08T00:04:35;10.10;99.90
4757;DHT22;2392;52.578;13.426;2023-05-08T00:07:02;10.10;99.90
4757;DHT22;2392;52.578;13.426;2023-05-08T00:09:29;10.00;99.90
4757;DHT22;2392;52.578;13.426;2023-05-08T00:11:57;10.00;99.90
4757;DHT22;2392;52.578;13.426;2023-05-08T00:14:24;10.00;99.90
4757;DHT22;2392;52.578;13.426;2023-05-08T00:16:51;10.00;99.90
4757;DHT22;2392;52.578;13.426;2023-05-08T00:19:18;10.00;99.90
4757;DHT22;2392;52.578;13.426;2023-05-08T00:21:45;9.90;99.90
4757;DHT22;2392;52.578;13.426;2023-05-08T00:24:12;9.90;99.90
4757;DHT22;2392;52.578;13.426;2023-05-08T00:26:39;9.80;99.90
4757;DHT22;2392;52.578;13.426;2023-05-08T00:29:13;9.80;99.90
4757;DHT22;2392;52.578;13.426;2023-05-08T00:31:40;9.70;99.90
4757;DHT22;2392;52.578;13.426;2023-05-08T00:34:07;9.70;99.90
4757;DHT22;2392;52.578;13.426;2023-05-08T00:36:34;9.70;99.90
4757;DHT22;2392;52.578;13.426;2023-05-08T00:39:01;9.70;99.90
4757;DHT22;2392;52.578;13.426;2023-05-08T00:41:28;9.70;99.90
4757;DHT22;2392;52.578;13.426;2023-05-08T00:43:55;9.70;99.90
4757;DHT22;2392;52.578;13.426;2023-05-08T00:46:24;9.60;99.90
4757;DHT22;2392;52.578;13.426;2023-05-08T00:48:51;9.60;99.90
4757;DHT22;2392;52.578;13.426;2023-05-08T00:51:18;9.60;99.90
4757;DHT22;2392;52.578;13.426;2023-05-08T00:53:46;9.50;99.90
4757;DHT22;2392;52.578;13.426;2023-05-08T00:56:14;9.50;99.90
4757;DHT22;2392;52.578;13.426;2023-05-08T00:58:42;9.50;99.90
4757;DHT22;2392;52.578;13.426;2023-05-08T01:01:10;9.40;99.90
4757;DHT22;2392;52.578;13.426;2023-05-08T01:03:39;9.40;99.90
4757;DHT22;2392;52.578;13.426;2023-05-08T01:06:06;9.50;99.90
4757;DHT22;2392;52.578;13.426;2023-05-08T01:08:34;9.40;99.90
4757;DHT22;2392;52.578;13.426;2023-05-08T01:11:17;9.40;99.90
4757;DHT22;2392;52.578;13.426;2023-05-08T01:13:54;9.40;99.90
4757;DHT22;2392;52.578;13.426;2023-05-08T01:16:31;9.30;99.90
4757;DHT22;2392;52.578;13.426;2023-05-08T01:19:22;9.30;99.90
4757;DHT22;2392;52.578;13.426;2023-05-08T01:21:57;9.30;99.90
4757;DHT22;2392;52.578;13.426;2023-05-08T01:24:41;9.30;99.90
4757;DHT22;2392;52.578;13.426;2023-05-08T01:27:45;9.30;99.90
4757;DHT22;2392;52.578;13.426;2023-05-08T01:30:37;9.30;99.90
4757;DHT22;2392;52.578;13.426;2023-05-08T01:33:17;9.30;99.90
4757;DHT22;2392;52.578;13.426;2023-05-08T01:35:49;9.30;99.90
4757;DHT22;2392;52.578;13.426;2023-05-08T01:38:26;9.30;99.90
4757;DHT22;2392;52.578;13.426;2023-05-08T01:41:02;9.30;99.90
4757;DHT22;2392;52.578;13.426;2023-05-08T01:43:43;9.30;99.90
4757;DHT22;2392;52.578;13.426;2023-05-08T01:46:15;9.30;99.90
4757;DHT22;2392;52.578;13.426;2023-05-08T01:48:49;9.30;99.90
4757;DHT22;2392;52.578;13.426;2023-05-08T01:51:19;9.20;99.90
4757;DHT22;2392;52.578;13.426;2023-05-08T01:53:51;9.20;99.90
4757;DHT22;2392;52.578;13.426;2023-05-08T01:56:24;9.20;99.90
4757;DHT22;2392;52.578;13.426;2023-05-08T01:58:53;9.20;99.90
4757;DHT22;2392;52.578;13.426;2023-05-08T02:01:24;9.10;99.90
4757;DHT22;2392;52.578;13.426;2023-05-08T02:03:52;9.10;99.90
4757;DHT22;2392;52.578;13.426;2023-05-08T02:06:21;9.10;99.90
4757;DHT22;2392;52.578;13.426;2023-05-08T02:08:49;9.10;99.90
4757;DHT22;2392;52.578;13.426;2023-05-08T02:11:17;9.00;99.90
4757;DHT22;2392;52.578;13.426;2023-05-08T02:13:47;9.00;99.90
4757;DHT22;2392;52.578;13.426;2023-05-08T02:16:14;9.00;99.90
4757;DHT22;2392;52.578;13.426;2023-05-08T02:18:51;9.00;99.90
4757;DHT22;2392;52.578;13.426;2023-05-08T02:21:20;8.90;99.90
4757;DHT22;2392;52.578;13.426;2023-05-08T02:23:48;8.90;99.90
4757;DHT22;2392;52.578;13.426;2023-05-08T02:26:16;8.90;99.90
4757;DHT22;2392;52.578;13.426;2023-05-08T02:28:43;8.90;99.90
4757;DHT22;2392;52.578;13.426;2023-05-08T02:31:11;8.90;99.90
4757;DHT22;2392;52.578;13.426;2023-05-08T02:33:40;8.80;99.90
4757;DHT22;2392;52.578;13.426;2023-05-08T02:36:10;8.80;99.90
4757;DHT22;2392;52.578;13.426;2023-05-08T02:38:43;8.70;99.90
4757;DHT22;2392;52.578;13.426;2023-05-08T02:41:12;8.80;99.90
4757;DHT22;2392;52.578;13.426;2023-05-08T02:43:41;8.70;99.90
4757;DHT22;2392;52.578;13.426;2023-05-08T02:46:13;8.70;99.90
4757;DHT22;2392;52.578;13.426;2023-05-08T02:48:50;8.70;99.90
4757;DHT22;2392;52.578;13.426;2023-05-08T02:51:24;8.60;99.90
4757;DHT22;2392;52.578;13.426;2023-05-08T02:53:58;8.60;99.90
4757;DHT22;2392;52.578;13.426;2023-05-08T02:56:36;8.60;99.90
4757;DHT22;2392;52.578;13.426;2023-05-08T02:59:12;8.60;99.90
4757;DHT22;2392;52.578;13.426;2023-05-08T03:01:47;8.60;99.90
4757;DHT22;2392;52.578;13.426;2023-05-08T03:04:23;8.60;99.90
4757;DHT22;2392;52.578;13.426;2023-05-08T03:06:54;8.60;99.90
4757;DHT22;2392;52.578;13.426;2023-05-08T03:09:25;8.50;99.90
4757;DHT22;2392;52.578;13.426;2023-05-08T03:12:00;8.50;99.90
4757;DHT22;2392;52.578;13.426;2023-05-08T03:14:31;8.50;99.90
4757;DHT22;2392;52.578;13.426;2023-05-08T03:17:02;8.50;99.90
4757;DHT22;2392;52.578;13.426;2023-05-08T03:19:35;8.40;99.90
4757;DHT22;2392;52.578;13.426;2023-05-08T03:22:05;8.40;99.90
4757;DHT22;2392;52.578;13.426;2023-05-08T03:24:36;8.40;99.90
4757;DHT22;2392;52.578;13.426;2023-05-08T03:27:05;8.40;99.90
4757;DHT22;2392;52.578;13.426;2023-05-08T03:29:33;8.40;99.90
4757;DHT22;2392;52.578;13.426;2023-05-08T03:32:02;8.40;99.90
4757;DHT22;2392;52.578;13.426;2023-05-08T03:34:29;8.30;99.90
4757;DHT22;2392;52.578;13.426;2023-05-08T03:36:57;8.30;99.90
4757;DHT22;2392;52.578;13.426;2023-05-08T03:39:24;8.30;99.90
4757;DHT22;2392;52.578;13.426;2023-05-08T03:41:54;8.30;99.90
4757;DHT22;2392;52.578;13.426;2023-05-08T03:44:22;8.30;99.90
4757;DHT22;2392;52.578;13.426;2023-05-08T03:46:51;8.30;99.90
4757;DHT22;2392;52.578;13.426;2023-05-08T03:49:19;8.30;99.90
4757;DHT22;2392;52.578;13.426;2023-05-08T03:51:50;8.30;99.90
4757;DHT22;2392;52.578;13.426;2023-05-08T03:54:18;8.20;99.90
4757;DHT22;2392;52.578;13.426;2023-05-08T03:56:51;8.20;99.90
4757;DHT22;2392;52.578;13.426;2023-05-08T03:59:27;8.20;99.90
4757;DHT22;2392;52.578;13.426;2023-05-08T04:02:02;8.20;99.90
4757;DHT22;2392;52.578;13.426;2023-05-08T04:04:38;8.20;99.90
4757;DHT22;2392;52.578;13.426;2023-05-08T04:07:11;8.20;99.90
4757;DHT22;2392;52.578;13.426;2023-05-08T04:09:50;8.20;99.90
4757;DHT22;2392;52.578;13.426;2023-05-08T04:12:26;8.20;99.90
4757;DHT22;2392;52.578;13.426;2023-05-08T04:15:03;8.20;99.90
4757;DHT22;2392;52.578;13.426;2023-05-08T04:17:38;8.20;99.90
4757;DHT22;2392;52.578;13.426;2023-05-08T04:20:09;8.20;99.90
4757;DHT22;2392;52.578;13.426;2023-05-08T04:22:38;8.20;99.90
4757;DHT22;2392;52.578;13.426;2023-05-08T04:25:08;8.20;99.90
4757;DHT22;2392;52.578;13.426;2023-05-08T04:27:37;8.20;99.90
4757;DHT22;2392;52.578;13.426;2023-05-08T04:30:08;8.20;99.90
4757;DHT22;2392;52.578;13.426;2023-05-08T04:32:36;8.20;99.90
4757;DHT22;2392;52.578;13.426;2023-05-08T04:35:05;8.30;99.90
4757;DHT22;2392;52.578;13.426;2023-05-08T04:37:32;8.30;99.90
4757;DHT22;2392;52.578;13.426;2023-05-08T04:40:02;8.20;99.90
4757;DHT22;2392;52.578;13.426;2023-05-08T04:42:30;8.30;99.90
4757;DHT22;2392;52.578;13.426;2023-05-08T04:44:59;8.30;99.90
4757;DHT22;2392;52.578;13.426;2023-05-08T04:47:28;8.30;99.90
4757;DHT22;2392;52.578;13.426;2023-05-08T04:49:55;8.30;99.90
4757;DHT22;2392;52.578;13.426;2023-05-08T04:52:23;8.30;99.90
4757;DHT22;2392;52.578;13.426;2023-05-08T04:54:50;8.30;99.90
4757;DHT22;2392;52.578;13.426;2023-05-08T04:57:18;8.40;99.90
4757;DHT22;2392;52.578;13.426;2023-05-08T04:59:45;8.40;99.90
4757;DHT22;2392;52.578;13.426;2023-05-08T05:02:13;8.40;99.90
4757;DHT22;2392;52.578;13.426;2023-05-08T05:04:42;8.40;99.90
4757;DHT22;2392;52.578;13.426;2023-05-08T05:07:09;8.40;99.90
4757;DHT22;2392;52.578;13.426;2023-05-08T05:09:37;8.40;99.90
4757;DHT22;2392;52.578;13.426;2023-05-08T05:12:05;8.40;99.90
4757;DHT22;2392;52.578;13.426;2023-05-08T05:14:32;8.50;99.90
4757;DHT22;2392;52.578;13.426;2023-05-08T05:16:59;8.50;99.90
4757;DHT22;2392;52.578;13.426;2023-05-08T05:19:27;8.50;99.90
4757;DHT22;2392;52.578;13.426;2023-05-08T05:21:55;8.50;99.90
4757;DHT22;2392;52.578;13.426;2023-05-08T05:24:22;8.60;99.90
4757;DHT22;2392;52.578;13.426;2023-05-08T05:26:50;8.70;99.90
4757;DHT22;2392;52.578;13.426;2023-05-08T05:29:17;8.70;99.90
4757;DHT22;2392;52.578;13.426;2023-05-08T05:31:44;8.70;99.90
4757;DHT22;2392;52.578;13.426;2023-05-08T05:34:12;8.80;99.90
4757;DHT22;2392;52.578;13.426;2023-05-08T05:36:40;8.80;99.90
4757;DHT22;2392;52.578;13.426;2023-05-08T05:39:08;8.90;99.90
4757;DHT22;2392;52.578;13.426;2023-05-08T05:41:35;8.90;99.90
4757;DHT22;2392;52.578;13.426;2023-05-08T05:44:03;9.00;99.90
4757;DHT22;2392;52.578;13.426;2023-05-08T05:46:30;9.10;99.90
4757;DHT22;2392;52.578;13.426;2023-05-08T05:49:00;9.10;99.90
4757;DHT22;2392;52.578;13.426;2023-05-08T05:51:28;9.10;99.90
4757;DHT22;2392;52.578;13.426;2023-05-08T05:53:55;9.20;99.90
4757;DHT22;2392;52.578;13.426;2023-05-08T05:56:25;9.20;99.90
4757;DHT22;2392;52.578;13.426;2023-05-08T05:58:52;9.20;99.90
4757;DHT22;2392;52.578;13.426;2023-05-08T06:01:19;9.20;99.90
4757;DHT22;2392;52.578;13.426;2023-05-08T06:03:49;9.30;99.90
4757;DHT22;2392;52.578;13.426;2023-05-08T06:06:16;9.30;99.90
4757;DHT22;2392;52.578;13.426;2023-05-08T06:08:43;9.30;99.90
4757;DHT22;2392;52.578;13.426;2023-05-08T06:11:11;9.40;99.90
4757;DHT22;2392;52.578;13.426;2023-05-08T06:13:39;9.40;99.90
4757;DHT22;2392;52.578;13.426;2023-05-08T06:16:08;9.50;99.90
4757;DHT22;2392;52.578;13.426;2023-05-08T06:18:35;9.50;99.90
4757;DHT22;2392;52.578;13.426;2023-05-08T06:21:03;9.50;99.90
4757;DHT22;2392;52.578;13.426;2023-05-08T06:23:30;9.60;99.90
4757;DHT22;2392;52.578;13.426;2023-05-08T06:25:57;9.60;99.90
4757;DHT22;2392;52.578;13.426;2023-05-08T06:28:24;9.60;99.90
4757;DHT22;2392;52.578;13.426;2023-05-08T06:30:53;9.70;99.90
4757;DHT22;2392;52.578;13.426;2023-05-08T06:33:20;9.80;99.90
4757;DHT22;2392;52.578;13.426;2023-05-08T06:35:47;9.90;99.90
4757;DHT22;2392;52.578;13.426;2023-05-08T06:38:14;10.00;99.90
4757;DHT22;2392;52.578;13.426;2023-05-08T06:40:42;10.00;99.90
4757;DHT22;2392;52.578;13.426;2023-05-08T06:43:10;10.10;99.90
4757;DHT22;2392;52.578;13.426;2023-05-08T06:45:37;10.20;99.90
4757;DHT22;2392;52.578;13.426;2023-05-08T06:48:06;10.30;99.90
4757;DHT22;2392;52.578;13.426;2023-05-08T06:50:33;10.40;99.90
4757;DHT22;2392;52.578;13.426;2023-05-08T06:53:00;10.50;99.90
4757;DHT22;2392;52.578;13.426;2023-05-08T06:55:27;10.60;99.90
4757;DHT22;2392;52.578;13.426;2023-05-08T06:57:54;10.60;99.90
4757;DHT22;2392;52.578;13.426;2023-05-08T07:00:21;10.60;99.90
4757;DHT22;2392;52.578;13.426;2023-05-08T07:02:48;10.70;99.90
4757;DHT22;2392;52.578;13.426;2023-05-08T07:05:16;10.80;99.90
4757;DHT22;2392;52.578;13.426;2023-05-08T07:07:44;10.80;99.90
4757;DHT22;2392;52.578;13.426;2023-05-08T07:10:11;10.90;99.90
4757;DHT22;2392;52.578;13.426;2023-05-08T07:12:38;11.00;99.90
4757;DHT22;2392;52.578;13.426;2023-05-08T07:15:06;11.00;99.90
4757;DHT22;2392;52.578;13.426;2023-05-08T07:17:35;11.10;99.90
4757;DHT22;2392;52.578;13.426;2023-05-08T07:20:03;11.10;99.90
4757;DHT22;2392;52.578;13.426;2023-05-08T07:22:31;11.10;99.90
4757;DHT22;2392;52.578;13.426;2023-05-08T07:24:58;11.20;99.90
4757;DHT22;2392;52.578;13.426;2023-05-08T07:27:25;11.30;99.90
4757;DHT22;2392;52.578;13.426;2023-05-08T07:29:54;11.40;99.90
4757;DHT22;2392;52.578;13.426;2023-05-08T07:32:23;11.50;99.90
4757;DHT22;2392;52.578;13.426;2023-05-08T07:34:50;11.60;99.90
4757;DHT22;2392;52.578;13.426;2023-05-08T07:37:17;11.60;99.90
4757;DHT22;2392;52.578;13.426;2023-05-08T07:39:45;11.70;99.90
4757;DHT22;2392;52.578;13.426;2023-05-08T07:42:12;11.80;99.90
4757;DHT22;2392;52.578;13.426;2023-05-08T07:44:39;11.90;99.90
4757;DHT22;2392;52.578;13.426;2023-05-08T07:47:07;12.00;99.90
4757;DHT22;2392;52.578;13.426;2023-05-08T07:49:34;12.00;99.90
4757;DHT22;2392;52.578;13.426;2023-05-08T07:52:01;12.10;99.90
4757;DHT22;2392;52.578;13.426;2023-05-08T07:54:28;12.20;99.90
4757;DHT22;2392;52.578;13.426;2023-05-08T07:56:56;12.20;99.90
4757;DHT22;2392;52.578;13.426;2023-05-08T07:59:23;12.30;99.90
4757;DHT22;2392;52.578;13.426;2023-05-08T08:01:50;12.40;99.90
4757;DHT22;2392;52.578;13.426;2023-05-08T08:04:17;12.40;99.90
4757;DHT22;2392;52.578;13.426;2023-05-08T08:06:44;12.50;99.90
4757;DHT22;2392;52.578;13.426;2023-05-08T08:09:11;12.50;99.90
4757;DHT22;2392;52.578;13.426;2023-05-08T08:11:38;12.60;99.90
4757;DHT22;2392;52.578;13.426;2023-05-08T08:14:07;12.70;99.90
4757;DHT22;2392;52.578;13.426;2023-05-08T08:16:34;12.80;99.90
4757;DHT22;2392;52.578;13.426;2023-05-08T08:19:01;12.90;99.90
4757;DHT22;2392;52.578;13.426;2023-05-08T08:21:28;13.00;99.70
4757;DHT22;2392;52.578;13.426;2023-05-08T08:23:55;13.10;98.90
4757;DHT22;2392;52.578;13.426;2023-05-08T08:26:23;13.20;99.00
4757;DHT22;2392;52.578;13.426;2023-05-08T08:28:52;13.20;98.60
4757;DHT22;2392;52.578;13.426;2023-05-08T08:31:20;13.30;98.10
4757;DHT22;2392;52.578;13.426;2023-05-08T08:33:47;13.30;97.70
4757;DHT22;2392;52.578;13.426;2023-05-08T08:36:15;13.40;97.90
4757;DHT22;2392;52.578;13.426;2023-05-08T08:38:42;13.50;97.10
4757;DHT22;2392;52.578;13.426;2023-05-08T08:41:10;13.60;97.10
4757;DHT22;2392;52.578;13.426;2023-05-08T08:43:39;13.70;96.50
4757;DHT22;2392;52.578;13.426;2023-05-08T08:46:10;13.80;96.30
4757;DHT22;2392;52.578;13.426;2023-05-08T08:48:43;14.00;94.80
4757;DHT22;2392;52.578;13.426;2023-05-08T08:51:15;14.00;93.80
4757;DHT22;2392;52.578;13.426;2023-05-08T08:53:45;14.10;94.10
4757;DHT22;2392;52.578;13.426;2023-05-08T08:56:15;14.20;93.90
4757;DHT22;2392;52.578;13.426;2023-05-08T08:58:48;14.30;93.90
4757;DHT22;2392;52.578;13.426;2023-05-08T09:01:19;14.40;94.70
4757;DHT22;2392;52.578;13.426;2023-05-08T09:03:49;14.50;94.50
4757;DHT22;2392;52.578;13.426;2023-05-08T09:06:16;14.60;94.60
4757;DHT22;2392;52.578;13.426;2023-05-08T09:08:44;14.70;95.20
4757;DHT22;2392;52.578;13.426;2023-05-08T09:11:11;14.80;94.60
4757;DHT22;2392;52.578;13.426;2023-05-08T09:13:38;14.90;94.10
4757;DHT22;2392;52.578;13.426;2023-05-08T09:16:06;15.00;93.60
4757;DHT22;2392;52.578;13.426;2023-05-08T09:18:33;15.10;93.90
4757;DHT22;2392;52.578;13.426;2023-05-08T09:21:01;15.10;93.60
4757;DHT22;2392;52.578;13.426;2023-05-08T09:23:28;15.20;93.20
4757;DHT22;2392;52.578;13.426;2023-05-08T09:25:55;15.30;93.30
4757;DHT22;2392;52.578;13.426;2023-05-08T09:28:24;15.40;92.80
4757;DHT22;2392;52.578;13.426;2023-05-08T09:30:52;15.50;92.20
4757;DHT22;2392;52.578;13.426;2023-05-08T09:33:21;15.60;92.80
4757;DHT22;2392;52.578;13.426;2023-05-08T09:35:48;15.70;92.10
4757;DHT22;2392;52.578;13.426;2023-05-08T09:38:36;15.70;93.00
4757;DHT22;2392;52.578;13.426;2023-05-08T09:41:07;15.90;92.80
4757;DHT22;2392;52.578;13.426;2023-05-08T09:43:35;16.00;92.20
4757;DHT22;2392;52.578;13.426;2023-05-08T09:46:29;16.00;91.70
4757;DHT22;2392;52.578;13.426;2023-05-08T09:48:59;16.10;90.90
4757;DHT22;2392;52.578;13.426;2023-05-08T09:51:28;16.10;90.60
4757;DHT22;2392;52.578;13.426;2023-05-08T09:53:58;16.30;91.40
4757;DHT22;2392;52.578;13.426;2023-05-08T09:56:30;16.30;90.30
4757;DHT22;2392;52.578;13.426;2023-05-08T09:58:57;16.40;90.20
4757;DHT22;2392;52.578;13.426;2023-05-08T10:01:28;16.50;91.00
4757;DHT22;2392;52.578;13.426;2023-05-08T10:03:57;16.60;89.90
4757;DHT22;2392;52.578;13.426;2023-05-08T10:06:24;16.70;90.30
4757;DHT22;2392;52.578;13.426;2023-05-08T10:09:07;16.90;90.40
4757;DHT22;2392;52.578;13.426;2023-05-08T10:11:35;17.60;90.00
4757;DHT22;2392;52.578;13.426;2023-05-08T10:14:02;18.50;86.50
4757;DHT22;2392;52.578;13.426;2023-05-08T10:16:30;19.40;84.80
4757;DHT22;2392;52.578;13.426;2023-05-08T10:19:04;20.60;84.00
4757;DHT22;2392;52.578;13.426;2023-05-08T10:21:37;21.60;80.20
4757;DHT22;2392;52.578;13.426;2023-05-08T10:24:13;22.50;75.90
4757;DHT22;2392;52.578;13.426;2023-05-08T10:26:42;23.50;73.10
4757;DHT22;2392;52.578;13.426;2023-05-08T10:29:16;24.50;72.30
4757;DHT22;2392;52.578;13.426;2023-05-08T10:31:45;25.70;68.30
4757;DHT22;2392;52.578;13.426;2023-05-08T10:34:16;26.40;65.70
4757;DHT22;2392;52.578;13.426;2023-05-08T10:36:45;27.30;62.60
4757;DHT22;2392;52.578;13.426;2023-05-08T10:39:14;28.60;60.60
4757;DHT22;2392;52.578;13.426;2023-05-08T10:41:42;29.60;57.90
4757;DHT22;2392;52.578;13.426;2023-05-08T10:44:10;30.10;54.70
4757;DHT22;2392;52.578;13.426;2023-05-08T10:46:42;30.30;53.20
4757;DHT22;2392;52.578;13.426;2023-05-08T10:49:15;31.00;52.30
4757;DHT22;2392;52.578;13.426;2023-05-08T10:51:51;32.30;51.60
4757;DHT22;2392;52.578;13.426;2023-05-08T10:54:33;32.00;47.00
4757;DHT22;2392;52.578;13.426;2023-05-08T10:57:08;31.60;46.20
4757;DHT22;2392;52.578;13.426;2023-05-08T10:59:35;31.80;45.10
4757;DHT22;2392;52.578;13.426;2023-05-08T11:02:03;31.70;45.20
4757;DHT22;2392;52.578;13.426;2023-05-08T11:04:31;32.70;46.30
4757;DHT22;2392;52.578;13.426;2023-05-08T11:06:58;32.60;44.00
4757;DHT22;2392;52.578;13.426;2023-05-08T11:09:29;32.70;43.60
4757;DHT22;2392;52.578;13.426;2023-05-08T11:12:19;33.00;44.00
4757;DHT22;2392;52.578;13.426;2023-05-08T11:14:54;33.90;43.40
4757;DHT22;2392;52.578;13.426;2023-05-08T11:17:23;33.90;41.60
4757;DHT22;2392;52.578;13.426;2023-05-08T11:19:58;34.10;40.40
4757;DHT22;2392;52.578;13.426;2023-05-08T11:22:27;34.80;41.80
4757;DHT22;2392;52.578;13.426;2023-05-08T11:25:04;34.30;39.50
4757;DHT22;2392;52.578;13.426;2023-05-08T11:27:39;34.30;40.10
4757;DHT22;2392;52.578;13.426;2023-05-08T11:30:21;32.30;39.60
4757;DHT22;2392;52.578;13.426;2023-05-08T11:33:10;30.50;41.30
4757;DHT22;2392;52.578;13.426;2023-05-08T11:35:47;28.70;43.60
4757;DHT22;2392;52.578;13.426;2023-05-08T11:38:16;27.10;43.70
4757;DHT22;2392;52.578;13.426;2023-05-08T11:40:47;26.40;44.80
4757;DHT22;2392;52.578;13.426;2023-05-08T11:46:34;24.50;46.70
4757;DHT22;2392;52.578;13.426;2023-05-08T11:49:02;23.60;47.40
4757;DHT22;2392;52.578;13.426;2023-05-08T11:51:30;23.20;47.70
4757;DHT22;2392;52.578;13.426;2023-05-08T11:53:58;23.00;50.30
4757;DHT22;2392;52.578;13.426;2023-05-08T11:56:27;22.50;49.60
4757;DHT22;2392;52.578;13.426;2023-05-08T11:59:03;22.10;51.30
4757;DHT22;2392;52.578;13.426;2023-05-08T12:01:31;21.90;51.60
4757;DHT22;2392;52.578;13.426;2023-05-08T12:04:03;21.70;50.60
4757;DHT22;2392;52.578;13.426;2023-05-08T12:06:31;21.60;50.80
4757;DHT22;2392;52.578;13.426;2023-05-08T12:08:58;21.50;52.10
4757;DHT22;2392;52.578;13.426;2023-05-08T12:11:27;21.40;53.10
4757;DHT22;2392;52.578;13.426;2023-05-08T12:13:54;21.40;52.30
4757;DHT22;2392;52.578;13.426;2023-05-08T12:16:22;21.20;51.50
4757;DHT22;2392;52.578;13.426;2023-05-08T12:18:51;21.10;52.60
4757;DHT22;2392;52.578;13.426;2023-05-08T12:21:19;21.10;52.50
4757;DHT22;2392;52.578;13.426;2023-05-08T12:23:47;21.00;51.50
4757;DHT22;2392;52.578;13.426;2023-05-08T12:26:15;20.90;53.10
4757;DHT22;2392;52.578;13.426;2023-05-08T12:28:53;20.90;51.30
4757;DHT22;2392;52.578;13.426;2023-05-08T12:31:21;21.10;51.20
4757;DHT22;2392;52.578;13.426;2023-05-08T12:33:48;21.30;51.20
4757;DHT22;2392;52.578;13.426;2023-05-08T12:36:15;21.40;51.80
4757;DHT22;2392;52.578;13.426;2023-05-08T12:38:42;21.50;51.10
4757;DHT22;2392;52.578;13.426;2023-05-08T12:41:10;21.70;50.20
4757;DHT22;2392;52.578;13.426;2023-05-08T12:43:37;22.00;51.50
4757;DHT22;2392;52.578;13.426;2023-05-08T12:46:10;22.20;49.70
4757;DHT22;2392;52.578;13.426;2023-05-08T12:48:39;22.20;50.60
4757;DHT22;2392;52.578;13.426;2023-05-08T12:51:06;22.20;50.30
4757;DHT22;2392;52.578;13.426;2023-05-08T12:53:33;22.10;51.10
4757;DHT22;2392;52.578;13.426;2023-05-08T12:56:02;22.00;50.90
4757;DHT22;2392;52.578;13.426;2023-05-08T12:58:31;21.90;51.90
4757;DHT22;2392;52.578;13.426;2023-05-08T13:01:08;21.80;52.20
4757;DHT22;2392;52.578;13.426;2023-05-08T13:03:38;21.50;50.20
4757;DHT22;2392;52.578;13.426;2023-05-08T13:06:05;21.40;52.90
4757;DHT22;2392;52.578;13.426;2023-05-08T13:08:34;21.20;52.50
4757;DHT22;2392;52.578;13.426;2023-05-08T13:11:02;21.10;50.30
4757;DHT22;2392;52.578;13.426;2023-05-08T13:13:30;21.00;51.80
4757;DHT22;2392;52.578;13.426;2023-05-08T13:16:01;20.90;51.90
4757;DHT22;2392;52.578;13.426;2023-05-08T13:18:29;20.70;51.40
4757;DHT22;2392;52.578;13.426;2023-05-08T13:20:57;20.70;52.60
4757;DHT22;2392;52.578;13.426;2023-05-08T13:23:26;20.80;58.00
4757;DHT22;2392;52.578;13.426;2023-05-08T13:25:54;20.90;64.00
4757;DHT22;2392;52.578;13.426;2023-05-08T13:28:21;21.10;59.30
4757;DHT22;2392;52.578;13.426;2023-05-08T13:30:48;21.30;59.30
4757;DHT22;2392;52.578;13.426;2023-05-08T13:33:15;21.40;60.10
4757;DHT22;2392;52.578;13.426;2023-05-08T13:35:44;21.30;53.60
4757;DHT22;2392;52.578;13.426;2023-05-08T13:38:11;21.40;52.80
4757;DHT22;2392;52.578;13.426;2023-05-08T13:40:38;21.40;51.40
4757;DHT22;2392;52.578;13.426;2023-05-08T13:43:05;21.30;50.00
4757;DHT22;2392;52.578;13.426;2023-05-08T13:45:32;21.30;50.90
4757;DHT22;2392;52.578;13.426;2023-05-08T13:47:59;21.50;51.90
4757;DHT22;2392;52.578;13.426;2023-05-08T13:50:26;21.80;51.70
4757;DHT22;2392;52.578;13.426;2023-05-08T13:52:54;21.90;50.30
4757;DHT22;2392;52.578;13.426;2023-05-08T13:55:22;21.90;50.70
4757;DHT22;2392;52.578;13.426;2023-05-08T13:57:49;22.00;51.60
4757;DHT22;2392;52.578;13.426;2023-05-08T14:00:16;22.10;52.50
4757;DHT22;2392;52.578;13.426;2023-05-08T14:02:43;22.00;54.30
4757;DHT22;2392;52.578;13.426;2023-05-08T14:05:10;22.00;55.10
4757;DHT22;2392;52.578;13.426;2023-05-08T14:07:38;21.90;54.70
4757;DHT22;2392;52.578;13.426;2023-05-08T14:10:06;21.80;53.60
4757;DHT22;2392;52.578;13.426;2023-05-08T14:12:34;21.90;54.10
4757;DHT22;2392;52.578;13.426;2023-05-08T14:15:02;22.00;54.10
4757;DHT22;2392;52.578;13.426;2023-05-08T14:17:30;22.10;54.60
4757;DHT22;2392;52.578;13.426;2023-05-08T14:19:57;22.00;53.60
4757;DHT22;2392;52.578;13.426;2023-05-08T14:22:24;22.10;54.20
4757;DHT22;2392;52.578;13.426;2023-05-08T14:24:51;22.10;53.40
4757;DHT22;2392;52.578;13.426;2023-05-08T14:27:20;22.10;53.10
4757;DHT22;2392;52.578;13.426;2023-05-08T14:29:47;22.00;53.90
4757;DHT22;2392;52.578;13.426;2023-05-08T14:32:14;22.00;53.40
4757;DHT22;2392;52.578;13.426;2023-05-08T14:34:41;21.90;52.80
4757;DHT22;2392;52.578;13.426;2023-05-08T14:37:09;21.80;53.40
4757;DHT22;2392;52.578;13.426;2023-05-08T14:39:37;21.70;54.20
4757;DHT22;2392;52.578;13.426;2023-05-08T14:42:04;21.70;53.50
4757;DHT22;2392;52.578;13.426;2023-05-08T14:44:33;21.60;53.90
4757;DHT22;2392;52.578;13.426;2023-05-08T14:47:00;21.90;54.80
4757;DHT22;2392;52.578;13.426;2023-05-08T14:49:27;22.60;53.70
4757;DHT22;2392;52.578;13.426;2023-05-08T14:51:55;23.30;53.40
4757;DHT22;2392;52.578;13.426;2023-05-08T14:54:22;24.00;52.80
4757;DHT22;2392;52.578;13.426;2023-05-08T14:56:50;24.70;51.80
4757;DHT22;2392;52.578;13.426;2023-05-08T14:59:16;25.30;52.00
4757;DHT22;2392;52.578;13.426;2023-05-08T15:01:45;25.70;50.90
4757;DHT22;2392;52.578;13.426;2023-05-08T15:04:12;25.30;49.20
4757;DHT22;2392;52.578;13.426;2023-05-08T15:06:39;25.40;50.10
4757;DHT22;2392;52.578;13.426;2023-05-08T15:09:07;25.30;50.10
4757;DHT22;2392;52.578;13.426;2023-05-08T15:11:34;24.90;50.20
4757;DHT22;2392;52.578;13.426;2023-05-08T15:14:02;24.50;50.30
4757;DHT22;2392;52.578;13.426;2023-05-08T15:16:29;24.00;50.70
4757;DHT22;2392;52.578;13.426;2023-05-08T15:18:57;23.80;52.00
4757;DHT22;2392;52.578;13.426;2023-05-08T15:21:24;23.40;51.60
4757;DHT22;2392;52.578;13.426;2023-05-08T15:23:52;23.20;52.20
4757;DHT22;2392;52.578;13.426;2023-05-08T15:26:19;22.80;52.60
4757;DHT22;2392;52.578;13.426;2023-05-08T15:28:47;22.60;53.20
4757;DHT22;2392;52.578;13.426;2023-05-08T15:31:14;22.40;53.80
4757;DHT22;2392;52.578;13.426;2023-05-08T15:33:41;22.10;53.30
4757;DHT22;2392;52.578;13.426;2023-05-08T15:36:11;21.80;53.90
4757;DHT22;2392;52.578;13.426;2023-05-08T15:38:38;21.60;53.50
4757;DHT22;2392;52.578;13.426;2023-05-08T15:41:06;21.40;54.50
4757;DHT22;2392;52.578;13.426;2023-05-08T15:43:36;21.30;54.20
4757;DHT22;2392;52.578;13.426;2023-05-08T15:46:03;21.20;55.00
4757;DHT22;2392;52.578;13.426;2023-05-08T15:48:30;21.10;55.00
4757;DHT22;2392;52.578;13.426;2023-05-08T15:50:57;21.10;55.10
4757;DHT22;2392;52.578;13.426;2023-05-08T15:53:26;21.10;54.60
4757;DHT22;2392;52.578;13.426;2023-05-08T15:55:53;21.00;55.10
4757;DHT22;2392;52.578;13.426;2023-05-08T15:58:21;20.80;54.80
4757;DHT22;2392;52.578;13.426;2023-05-08T16:00:48;20.90;55.20
4757;DHT22;2392;52.578;13.426;2023-05-08T16:03:15;20.80;54.50
4757;DHT22;2392;52.578;13.426;2023-05-08T16:05:42;20.80;55.70
4757;DHT22;2392;52.578;13.426;2023-05-08T16:08:12;20.70;55.20
4757;DHT22;2392;52.578;13.426;2023-05-08T16:10:41;20.60;54.60